Time;durP1;ratioP1;P1;durP2;ratioP2;P2;SDS_P1;SDS_P2;PMS_P1;PMS_P2;Temp;Humidity;BMP_temperature;BMP_pressure;BME280_temperature;BME280_humidity;BME280_pressure;Samples;Min_cycle;Max_cycle;Signal;HPM_P1;HPM_P2
2023/05/01 00:00:41;;;;;;;10.77;5.28;;;6.50;98.70;;;;;;4970722;28;20192;-69
2023/05/01 00:03:06;;;;;;;10.10;4.57;;;6.50;98.60;;;;;;4965521;28;20162;-66
2023/05/01 00:05:32;;;;;;;8.73;5.10;;;6.50;98.60;;;;;;4966323;28;20074;-66
2023/05/01 00:07:58;;;;;;;9.60;4.47;;;6.50;98.50;;;;;;4965285;28;20113;-66
2023/05/01 00:10:24;;;;;;;7.13;4.85;;;6.50;98.70;;;;;;4968270;28;20142;-69
2023/05/01 00:12:49;;;;;;;10.15;5.00;;;6.50;98.70;;;;;;4979877;28;20121;-67
2023/05/01 00:15:16;;;;;;;10.00;5.55;;;6.50;98.70;;;;;;4961852;28;20049;-67
2023/05/01 00:17:41;;;;;;;6.85;4.60;;;6.50;98.80;;;;;;4967665;28;20027;-67
2023/05/01 00:20:08;;;;;;;9.40;5.15;;;6.50;99.50;;;;;;4971900;28;20084;-66
2023/05/01 00:22:34;;;;;;;11.98;6.07;;;6.50;99.90;;;;;;4973292;28;20034;-68
2023/05/01 00:24:59;;;;;;;10.65;5.40;;;6.60;99.90;;;;;;4971400;28;20675;-66
2023/05/01 00:27:26;;;;;;;10.32;5.78;;;6.60;99.90;;;;;;4970854;28;20761;-66
2023/05/01 00:29:51;;;;;;;11.43;5.75;;;6.70;99.90;;;;;;4970548;28;20195;-66
2023/05/01 00:32:17;;;;;;;8.68;4.75;;;6.70;99.90;;;;;;4967581;28;20030;-67
2023/05/01 00:34:44;;;;;;;10.52;5.43;;;6.80;99.90;;;;;;4962133;28;20032;-67
2023/05/01 00:37:10;;;;;;;11.98;5.70;;;6.80;99.90;;;;;;4975335;28;20129;-66
2023/05/01 00:39:36;;;;;;;11.63;5.40;;;6.80;99.90;;;;;;4967627;28;20034;-66
2023/05/01 00:42:02;;;;;;;11.68;5.32;;;6.90;99.90;;;;;;4965268;28;20446;-66
2023/05/01 00:44:28;;;;;;;11.77;6.43;;;6.80;99.90;;;;;;4970665;28;20026;-68
2023/05/01 00:46:55;;;;;;;10.73;5.15;;;6.90;99.90;;;;;;4973077;28;20038;-69
2023/05/01 00:49:21;;;;;;;9.90;5.47;;;6.90;99.90;;;;;;4957221;28;20045;-69
2023/05/01 00:51:51;;;;;;;10.05;5.72;;;6.90;99.90;;;;;;4967525;28;20034;-67
2023/05/01 00:54:18;;;;;;;7.95;4.97;;;6.90;99.90;;;;;;4965946;28;20049;-67
2023/05/01 00:56:46;;;;;;;8.90;5.07;;;6.90;99.90;;;;;;4968917;28;20125;-67
2023/05/01 00:59:13;;;;;;;9.88;5.00;;;6.90;99.90;;;;;;4966995;28;20126;-69
2023/05/01 01:01:41;;;;;;;10.77;5.65;;;6.90;99.90;;;;;;4965916;28;20058;-66
2023/05/01 01:04:07;;;;;;;12.00;5.13;;;6.90;99.90;;;;;;4967774;28;20030;-69
2023/05/01 01:06:38;;;;;;;11.25;4.65;;;6.90;99.80;;;;;;4969069;28;20112;-67
2023/05/01 01:09:41;;;;;;;11.23;5.88;;;6.90;99.60;;;;;;4969019;28;20102;-69
2023/05/01 01:12:33;;;;;;;9.40;5.57;;;6.80;99.70;;;;;;4968689;28;20026;-67
2023/05/01 01:15:05;;;;;;;8.05;4.72;;;6.80;99.90;;;;;;4966046;28;20038;-69
2023/05/01 01:17:37;;;;;;;8.80;5.22;;;6.70;99.90;;;;;;4967877;28;20058;-69
2023/05/01 01:20:32;;;;;;;8.95;5.10;;;6.70;99.90;;;;;;4973678;28;20376;-68
2023/05/01 01:23:22;;;;;;;12.05;5.47;;;6.70;99.80;;;;;;4962448;28;20038;-71
2023/05/01 01:26:14;;;;;;;10.57;5.70;;;6.80;99.60;;;;;;4969908;28;20042;-68
2023/05/01 01:29:05;;;;;;;14.63;5.80;;;6.70;99.40;;;;;;4962187;28;20057;-69
2023/05/01 01:31:55;;;;;;;14.45;6.22;;;6.70;99.60;;;;;;4967723;28;20398;-69
2023/05/01 01:34:26;;;;;;;9.15;5.78;;;6.70;99.90;;;;;;4966255;28;20678;-69
2023/05/01 01:36:59;;;;;;;13.32;6.45;;;6.70;99.90;;;;;;4971214;28;20030;-69
2023/05/01 01:39:44;;;;;;;12.00;6.07;;;6.70;99.90;;;;;;4964756;28;20031;-68
2023/05/01 01:42:18;;;;;;;13.80;6.75;;;6.60;99.90;;;;;;4964096;28;20054;-69
2023/05/01 01:45:03;;;;;;;13.10;6.25;;;6.70;99.90;;;;;;4968543;28;20378;-69
2023/05/01 01:47:31;;;;;;;14.88;6.20;;;6.60;99.90;;;;;;4981159;28;20126;-69
2023/05/01 01:50:03;;;;;;;13.80;6.82;;;6.60;99.90;;;;;;4962353;28;20724;-69
2023/05/01 01:52:31;;;;;;;12.60;6.35;;;6.60;99.90;;;;;;4975544;28;20034;-69
2023/05/01 01:55:06;;;;;;;15.75;6.68;;;6.60;99.90;;;;;;4970538;28;20145;-69
2023/05/01 01:57:33;;;;;;;9.57;6.28;;;6.60;99.90;;;;;;4972234;28;20034;-68
2023/05/01 01:59:59;;;;;;;9.80;6.07;;;6.60;99.90;;;;;;4970248;28;20088;-69
2023/05/01 02:02:27;;;;;;;11.38;6.75;;;6.60;99.90;;;;;;4970310;28;20035;-69
2023/05/01 02:04:56;;;;;;;12.95;6.75;;;6.60;99.90;;;;;;4976142;28;20522;-69
2023/05/01 02:07:22;;;;;;;9.68;6.38;;;6.60;99.90;;;;;;4962745;28;20156;-69
2023/05/01 02:09:50;;;;;;;11.15;6.90;;;6.60;99.90;;;;;;4971094;28;20030;-68
2023/05/01 02:12:18;;;;;;;9.57;5.55;;;6.60;99.90;;;;;;4971934;28;20045;-69
2023/05/01 02:14:47;;;;;;;13.07;6.43;;;6.50;99.90;;;;;;4973976;28;20049;-68
2023/05/01 02:17:15;;;;;;;10.27;6.57;;;6.50;99.90;;;;;;4976772;28;20061;-68
2023/05/01 02:19:42;;;;;;;12.57;6.57;;;6.50;99.90;;;;;;4977190;28;20022;-68
2023/05/01 02:22:10;;;;;;;9.43;6.43;;;6.50;99.90;;;;;;4973961;28;20042;-69
2023/05/01 02:24:38;;;;;;;15.75;6.22;;;6.50;99.90;;;;;;4961598;28;20658;-69
2023/05/01 02:27:10;;;;;;;9.10;6.03;;;6.50;99.90;;;;;;4975137;28;20065;-69
2023/05/01 02:29:36;;;;;;;10.57;6.07;;;6.50;99.90;;;;;;4960477;28;20035;-69
2023/05/01 02:32:02;;;;;;;10.02;5.95;;;6.50;99.90;;;;;;4979873;28;20050;-69
2023/05/01 02:34:28;;;;;;;8.05;5.80;;;6.50;99.90;;;;;;4977386;28;20033;-69
2023/05/01 02:36:54;;;;;;;11.55;5.95;;;6.40;99.90;;;;;;4966336;28;20031;-68
2023/05/01 02:39:21;;;;;;;17.52;6.88;;;6.50;99.90;;;;;;4956460;28;20031;-68
2023/05/01 02:41:48;;;;;;;9.65;5.47;;;6.50;99.90;;;;;;4960961;28;20022;-69
2023/05/01 02:44:15;;;;;;;11.63;6.30;;;6.50;99.90;;;;;;4970371;28;20118;-69
2023/05/01 02:46:44;;;;;;;14.10;6.50;;;6.50;99.90;;;;;;4968505;28;20027;-69
2023/05/01 02:49:12;;;;;;;11.57;6.38;;;6.40;99.90;;;;;;4967075;28;20431;-66
2023/05/01 02:51:39;;;;;;;13.40;6.05;;;6.40;99.90;;;;;;4963421;28;20038;-68
2023/05/01 02:54:05;;;;;;;11.77;6.78;;;6.50;99.90;;;;;;4964110;28;20031;-69
2023/05/01 02:56:31;;;;;;;13.90;6.75;;;6.40;99.90;;;;;;4962791;28;20033;-69
2023/05/01 02:58:57;;;;;;;13.63;6.32;;;6.40;99.90;;;;;;4962612;28;20027;-69
2023/05/01 03:01:23;;;;;;;13.40;6.53;;;6.40;99.90;;;;;;4968314;28;20113;-68
2023/05/01 03:03:48;;;;;;;16.60;7.13;;;6.40;99.90;;;;;;4963942;28;20031;-69
2023/05/01 03:06:14;;;;;;;17.35;6.78;;;6.30;99.90;;;;;;4966390;28;20070;-66
2023/05/01 03:08:40;;;;;;;12.00;7.38;;;6.40;99.90;;;;;;4968944;28;20038;-69
2023/05/01 03:11:06;;;;;;;17.50;6.68;;;6.50;99.90;;;;;;4961195;28;20034;-69
2023/05/01 03:13:33;;;;;;;11.05;6.20;;;6.50;99.90;;;;;;4960004;28;20031;-69
2023/05/01 03:15:59;;;;;;;11.98;6.45;;;6.50;99.90;;;;;;4961672;28;20040;-68
2023/05/01 03:18:25;;;;;;;13.02;5.85;;;6.50;99.60;;;;;;4959420;28;20672;-68
2023/05/01 03:20:55;;;;;;;13.48;6.75;;;6.60;99.90;;;;;;4969541;28;20023;-69
2023/05/01 03:23:22;;;;;;;13.38;5.88;;;6.60;99.60;;;;;;4987880;28;20521;-69
2023/05/01 03:25:49;;;;;;;13.40;6.00;;;6.60;99.50;;;;;;4965185;28;20062;-68
2023/05/01 03:28:15;;;;;;;11.98;6.53;;;6.60;99.70;;;;;;4965294;28;21124;-68
2023/05/01 03:30:41;;;;;;;8.85;6.07;;;6.60;99.80;;;;;;4971499;28;20030;-69
2023/05/01 03:33:07;;;;;;;13.25;6.20;;;6.60;99.80;;;;;;4968545;28;20125;-68
2023/05/01 03:35:33;;;;;;;10.80;5.80;;;6.60;99.80;;;;;;4968783;28;20077;-69
2023/05/01 03:37:59;;;;;;;11.45;5.68;;;6.50;99.80;;;;;;4972015;28;20149;-68
2023/05/01 03:40:43;;;;;;;10.23;6.32;;;6.50;99.90;;;;;;4962480;28;20041;-69
2023/05/01 03:43:35;;;;;;;11.85;6.05;;;6.40;99.90;;;;;;4966222;28;20034;-69
2023/05/01 03:46:06;;;;;;;11.02;6.57;;;6.40;99.90;;;;;;4972937;28;20585;-69
2023/05/01 03:48:32;;;;;;;12.95;6.00;;;6.40;99.90;;;;;;4961773;28;20071;-69
2023/05/01 03:50:58;;;;;;;13.88;6.10;;;6.40;99.90;;;;;;4974570;28;20030;-68
2023/05/01 03:53:24;;;;;;;11.55;5.97;;;6.30;99.90;;;;;;4970578;28;20034;-69
2023/05/01 03:55:50;;;;;;;8.50;5.07;;;6.30;99.90;;;;;;4967209;28;20053;-69
2023/05/01 03:58:16;;;;;;;12.27;6.25;;;6.30;99.90;;;;;;4959677;28;20035;-68
2023/05/01 04:00:42;;;;;;;8.98;5.45;;;6.30;99.90;;;;;;4971023;28;20033;-68
2023/05/01 04:03:08;;;;;;;9.00;5.43;;;6.30;99.90;;;;;;4957956;28;20034;-69
2023/05/01 04:05:36;;;;;;;8.82;5.40;;;6.30;99.90;;;;;;4965654;28;20105;-69
2023/05/01 04:08:03;;;;;;;13.23;5.70;;;6.30;99.90;;;;;;4969258;28;20041;-69
2023/05/01 04:10:29;;;;;;;10.65;5.60;;;6.30;99.90;;;;;;4965992;28;20714;-68
2023/05/01 04:13:03;;;;;;;12.93;4.93;;;6.30;99.90;;;;;;4968918;28;20034;-68
2023/05/01 04:15:29;;;;;;;9.65;6.22;;;6.40;99.90;;;;;;4966836;28;20058;-68
2023/05/01 04:17:55;;;;;;;11.27;5.70;;;6.40;99.90;;;;;;4946242;28;20814;-69
2023/05/01 04:20:22;;;;;;;10.20;5.75;;;6.40;99.90;;;;;;4971126;28;20077;-68
2023/05/01 04:22:48;;;;;;;10.70;5.25;;;6.50;99.90;;;;;;4960976;28;20106;-69
2023/05/01 04:25:14;;;;;;;12.23;5.80;;;6.50;99.90;;;;;;4967820;28;20782;-69
2023/05/01 04:27:41;;;;;;;11.93;5.82;;;6.50;99.90;;;;;;4973935;28;20058;-69
2023/05/01 04:30:07;;;;;;;10.75;5.15;;;6.50;99.80;;;;;;4957344;28;20043;-69
2023/05/01 04:32:34;;;;;;;12.88;6.45;;;6.50;99.90;;;;;;4970682;28;20835;-68
2023/05/01 04:35:00;;;;;;;11.57;5.57;;;6.50;99.90;;;;;;4957679;28;20081;-68
2023/05/01 04:37:27;;;;;;;12.23;4.90;;;6.40;99.50;;;;;;4958711;28;20407;-68
2023/05/01 04:39:52;;;;;;;7.35;5.00;;;6.50;99.60;;;;;;4963215;28;20038;-68
2023/05/01 04:42:20;;;;;;;9.80;4.95;;;6.60;99.40;;;;;;4970771;28;20034;-69
2023/05/01 04:44:46;;;;;;;10.75;5.40;;;6.60;99.30;;;;;;4956410;28;20035;-68
2023/05/01 04:47:12;;;;;;;9.00;4.68;;;6.70;99.10;;;;;;4967364;28;20561;-68
2023/05/01 04:49:38;;;;;;;9.55;4.80;;;6.70;98.80;;;;;;4964043;28;20104;-68
2023/05/01 04:52:04;;;;;;;7.53;4.25;;;6.80;98.60;;;;;;4970503;28;20030;-68
2023/05/01 04:54:42;;;;;;;9.45;4.32;;;6.90;98.40;;;;;;4948210;28;20035;-69
2023/05/01 04:57:08;;;;;;;8.75;4.60;;;7.00;98.10;;;;;;4958581;28;20049;-68
2023/05/01 04:59:34;;;;;;;7.82;4.63;;;7.10;97.90;;;;;;4958094;28;20034;-69
2023/05/01 05:02:01;;;;;;;9.80;4.40;;;7.10;97.80;;;;;;4963623;28;20117;-68
2023/05/01 05:04:27;;;;;;;5.97;4.03;;;7.30;97.60;;;;;;4964725;28;20054;-69
2023/05/01 05:06:53;;;;;;;12.15;4.65;;;7.40;97.50;;;;;;4966368;28;20034;-69
2023/05/01 05:09:26;;;;;;;5.80;3.83;;;7.50;97.60;;;;;;4956127;28;20027;-68
2023/05/01 05:11:52;;;;;;;6.43;4.25;;;7.60;96.80;;;;;;4974254;28;20435;-69
2023/05/01 05:14:21;;;;;;;7.88;3.88;;;7.70;96.50;;;;;;4959631;28;20031;-69
2023/05/01 05:16:47;;;;;;;8.43;3.60;;;7.90;96.00;;;;;;4965852;28;20018;-68
2023/05/01 05:19:12;;;;;;;11.48;4.22;;;8.00;95.10;;;;;;4955457;28;20034;-68
2023/05/01 05:21:41;;;;;;;7.65;3.95;;;8.10;95.10;;;;;;4964460;28;20573;-68
2023/05/01 05:24:07;;;;;;;6.45;3.78;;;8.30;94.80;;;;;;4962915;28;20035;-68
2023/05/01 05:26:33;;;;;;;7.85;4.78;;;8.50;94.70;;;;;;4963556;28;20022;-69
2023/05/01 05:29:01;;;;;;;8.00;3.20;;;8.80;94.40;;;;;;4957656;28;20130;-66
2023/05/01 05:31:27;;;;;;;9.23;3.78;;;9.10;93.00;;;;;;4965555;28;20804;-66
2023/05/01 05:33:54;;;;;;;6.40;3.92;;;9.30;91.90;;;;;;4966851;28;20549;-69
2023/05/01 05:36:20;;;;;;;7.50;3.65;;;9.70;92.10;;;;;;4955738;28;20039;-66
2023/05/01 05:38:46;;;;;;;8.23;4.35;;;10.10;90.50;;;;;;4970833;28;20022;-68
2023/05/01 05:41:16;;;;;;;10.05;4.55;;;10.70;89.70;;;;;;4975416;28;20028;-68
2023/05/01 05:43:43;;;;;;;6.30;3.55;;;11.40;86.20;;;;;;4962410;28;20093;-68
2023/05/01 05:46:08;;;;;;;10.38;3.70;;;12.00;83.60;;;;;;4965020;28;20038;-67
2023/05/01 05:48:36;;;;;;;9.18;3.90;;;12.50;79.80;;;;;;4967764;28;20678;-68
2023/05/01 05:51:02;;;;;;;7.57;3.30;;;13.00;74.70;;;;;;4962477;28;20038;-68
2023/05/01 05:53:28;;;;;;;8.25;3.85;;;13.50;73.60;;;;;;4965720;28;20026;-68
2023/05/01 05:55:54;;;;;;;7.18;3.67;;;14.00;72.70;;;;;;4961671;28;20041;-66
2023/05/01 05:58:21;;;;;;;7.75;4.13;;;14.40;68.70;;;;;;4957715;28;20026;-69
2023/05/01 06:00:49;;;;;;;6.97;3.75;;;14.60;66.90;;;;;;4969230;28;20669;-66
2023/05/01 06:03:15;;;;;;;10.38;3.53;;;14.80;64.70;;;;;;4974319;28;21562;-66
2023/05/01 06:05:43;;;;;;;6.30;3.42;;;15.20;65.20;;;;;;4950740;28;20178;-68
2023/05/01 06:08:12;;;;;;;8.18;2.97;;;15.50;61.00;;;;;;4954743;28;20046;-68
2023/05/01 06:10:40;;;;;;;6.28;3.45;;;15.60;59.00;;;;;;4967289;28;20034;-68
2023/05/01 06:13:07;;;;;;;7.90;3.15;;;15.70;58.70;;;;;;4962064;28;20960;-68
2023/05/01 06:15:34;;;;;;;6.57;3.38;;;16.00;58.20;;;;;;4965099;28;20027;-68
2023/05/01 06:18:03;;;;;;;4.57;2.72;;;16.40;57.20;;;;;;4975406;28;20041;-68
2023/05/01 06:20:29;;;;;;;6.03;3.33;;;16.60;55.50;;;;;;4964958;28;20889;-68
2023/05/01 06:22:56;;;;;;;7.85;3.20;;;16.80;56.00;;;;;;4958305;28;20102;-68
2023/05/01 06:25:29;;;;;;;4.97;2.90;;;17.00;54.10;;;;;;4973148;28;20442;-66
2023/05/01 06:27:56;;;;;;;6.70;3.50;;;17.10;54.20;;;;;;4956578;28;20541;-68
2023/05/01 06:30:23;;;;;;;6.45;3.10;;;16.90;52.50;;;;;;4969047;28;20039;-68
2023/05/01 06:32:49;;;;;;;7.03;2.97;;;16.80;53.50;;;;;;4961317;28;20026;-68
2023/05/01 06:35:15;;;;;;;10.25;3.60;;;16.60;53.20;;;;;;4959949;28;20031;-68
2023/05/01 06:37:41;;;;;;;7.68;3.38;;;16.40;54.20;;;;;;4960465;28;20053;-69
2023/05/01 06:40:09;;;;;;;10.43;3.05;;;16.30;54.00;;;;;;4962195;28;20032;-69
2023/05/01 06:42:37;;;;;;;5.90;3.20;;;16.30;53.70;;;;;;4979415;28;20080;-69
2023/05/01 06:45:04;;;;;;;6.80;3.03;;;16.30;52.90;;;;;;4959235;28;20031;-69
2023/05/01 06:47:29;;;;;;;5.75;3.38;;;16.40;53.10;;;;;;4968270;28;20562;-69
2023/05/01 06:49:55;;;;;;;7.82;2.88;;;16.60;54.30;;;;;;4967958;28;20048;-69
2023/05/01 06:52:21;;;;;;;5.25;2.90;;;16.80;53.10;;;;;;4964037;28;20022;-69
2023/05/01 06:54:47;;;;;;;7.85;3.30;;;17.00;52.60;;;;;;4969977;28;20455;-69
2023/05/01 06:57:13;;;;;;;5.80;2.63;;;16.90;53.20;;;;;;4953763;28;20061;-69
2023/05/01 06:59:39;;;;;;;7.15;3.20;;;16.70;53.10;;;;;;4965450;28;20136;-67
2023/05/01 07:02:05;;;;;;;7.95;2.90;;;16.70;53.40;;;;;;4965459;28;20391;-69
2023/05/01 07:04:31;;;;;;;5.63;2.90;;;16.80;54.60;;;;;;4967679;28;20042;-67
2023/05/01 07:06:57;;;;;;;5.57;2.78;;;17.10;53.50;;;;;;4967312;28;20057;-67
2023/05/01 07:09:22;;;;;;;4.50;2.63;;;17.20;52.90;;;;;;4963384;28;20035;-69
2023/05/01 07:11:48;;;;;;;4.72;2.70;;;17.30;53.30;;;;;;4968007;28;20262;-66
2023/05/01 07:14:14;;;;;;;7.05;3.05;;;17.40;52.20;;;;;;4966968;28;20064;-67
2023/05/01 07:16:40;;;;;;;6.50;2.90;;;17.30;52.40;;;;;;4965350;28;20031;-67
2023/05/01 07:19:06;;;;;;;3.78;2.80;;;17.10;53.40;;;;;;4973030;28;20042;-65
2023/05/01 07:21:31;;;;;;;4.88;2.45;;;17.00;53.00;;;;;;4965289;28;20035;-68
2023/05/01 07:23:57;;;;;;;5.65;2.90;;;17.00;53.00;;;;;;4967560;28;20035;-68
2023/05/01 07:26:25;;;;;;;3.47;2.28;;;17.00;52.50;;;;;;4965226;28;20062;-68
2023/05/01 07:28:51;;;;;;;3.78;2.35;;;16.90;53.90;;;;;;4967425;28;20761;-68
2023/05/01 07:31:17;;;;;;;5.70;2.40;;;17.10;52.50;;;;;;4958816;28;20129;-68
2023/05/01 07:33:43;;;;;;;4.85;2.60;;;17.20;51.90;;;;;;4966158;28;20837;-70
2023/05/01 07:36:10;;;;;;;5.40;2.50;;;17.30;52.00;;;;;;4964088;28;20035;-68
2023/05/01 07:38:35;;;;;;;4.13;2.55;;;17.50;51.70;;;;;;4967303;28;20043;-68
2023/05/01 07:41:01;;;;;;;3.00;2.10;;;17.70;52.90;;;;;;4965526;28;20038;-65
2023/05/01 07:43:27;;;;;;;5.15;2.25;;;18.10;51.70;;;;;;4968881;28;20033;-65
2023/05/01 07:45:59;;;;;;;7.00;2.40;;;18.20;50.10;;;;;;4970148;28;20047;-67
2023/05/01 07:48:26;;;;;;;9.27;2.42;;;18.20;51.10;;;;;;4969564;28;20039;-68
2023/05/01 07:50:52;;;;;;;4.53;2.38;;;18.30;51.40;;;;;;4974170;28;20185;-68
2023/05/01 07:53:17;;;;;;;6.35;2.63;;;18.30;49.50;;;;;;4967204;28;20041;-68
2023/05/01 07:55:43;;;;;;;4.15;2.60;;;18.50;50.40;;;;;;4967276;28;20042;-66
2023/05/01 07:58:09;;;;;;;7.78;2.65;;;18.50;51.20;;;;;;4965628;28;20034;-66
2023/05/01 08:00:35;;;;;;;7.13;2.75;;;18.60;49.00;;;;;;4961149;28;20034;-68
2023/05/01 08:03:01;;;;;;;4.82;2.75;;;18.30;47.90;;;;;;4965287;28;20058;-68
2023/05/01 08:05:27;;;;;;;7.65;2.50;;;18.00;50.50;;;;;;4968183;28;20034;-68
2023/05/01 08:07:53;;;;;;;6.57;3.00;;;17.90;50.00;;;;;;4966890;28;20085;-68
2023/05/01 08:10:18;;;;;;;5.10;2.45;;;18.00;51.20;;;;;;4965803;28;20035;-65
2023/05/01 08:12:44;;;;;;;5.78;2.40;;;18.20;50.20;;;;;;4968987;28;20045;-65
2023/05/01 08:15:10;;;;;;;4.93;2.22;;;18.40;48.50;;;;;;4966276;28;20170;-66
2023/05/01 08:17:36;;;;;;;6.30;2.20;;;18.60;48.60;;;;;;4969761;28;20113;-67
2023/05/01 08:20:03;;;;;;;5.95;2.55;;;18.80;50.00;;;;;;4967224;28;20045;-67
2023/05/01 08:22:28;;;;;;;8.30;2.58;;;18.80;48.50;;;;;;4974695;28;20042;-67
2023/05/01 08:24:54;;;;;;;7.50;2.35;;;18.60;47.70;;;;;;4968670;28;20065;-67
2023/05/01 08:27:20;;;;;;;4.75;2.53;;;18.50;49.10;;;;;;4971028;28;20034;-67
2023/05/01 08:29:46;;;;;;;5.40;2.75;;;18.60;50.20;;;;;;4969560;28;20530;-68
2023/05/01 08:32:13;;;;;;;8.82;2.47;;;18.80;50.20;;;;;;4971144;28;20031;-68
2023/05/01 08:34:39;;;;;;;4.82;2.50;;;18.80;48.70;;;;;;4965974;28;20100;-67
2023/05/01 08:37:05;;;;;;;10.00;3.05;;;18.90;50.90;;;;;;4968187;28;20047;-67
2023/05/01 08:39:31;;;;;;;6.97;2.33;;;19.10;49.70;;;;;;4968169;28;20034;-68
2023/05/01 08:41:58;;;;;;;5.95;2.28;;;19.30;49.00;;;;;;4970529;28;20084;-67
2023/05/01 08:44:25;;;;;;;4.57;1.98;;;19.40;47.70;;;;;;4966403;28;20053;-68
2023/05/01 08:47:11;;;;;;;4.72;2.38;;;19.40;46.70;;;;;;4966302;28;20081;-68
2023/05/01 08:49:39;;;;;;;4.03;2.00;;;19.40;46.40;;;;;;4962999;28;20034;-68
2023/05/01 08:52:06;;;;;;;4.00;2.08;;;19.20;48.50;;;;;;4960315;28;20101;-67
2023/05/01 08:54:33;;;;;;;4.35;2.30;;;19.30;47.40;;;;;;4961192;28;20511;-68
2023/05/01 08:57:03;;;;;;;3.65;2.47;;;19.50;46.90;;;;;;4964545;28;20038;-68
2023/05/01 08:59:39;;;;;;;4.72;2.20;;;19.90;46.00;;;;;;4957638;28;20526;-68
2023/05/01 09:02:07;;;;;;;7.25;2.65;;;20.10;45.70;;;;;;4963978;28;20100;-67
2023/05/01 09:04:40;;;;;;;6.57;2.55;;;20.10;45.70;;;;;;4961732;28;20035;-68
2023/05/01 09:07:06;;;;;;;4.55;2.38;;;20.10;44.80;;;;;;4965867;28;20082;-67
2023/05/01 09:09:33;;;;;;;7.75;2.35;;;20.20;44.80;;;;;;4966046;28;20026;-67
2023/05/01 09:12:19;;;;;;;4.03;2.22;;;20.50;44.40;;;;;;4964610;28;20046;-67
2023/05/01 09:14:45;;;;;;;5.22;2.60;;;20.70;43.70;;;;;;4967619;28;20038;-67
2023/05/01 09:17:12;;;;;;;7.82;2.35;;;20.70;44.70;;;;;;4966096;28;20042;-67
2023/05/01 09:19:39;;;;;;;5.57;2.13;;;21.00;42.80;;;;;;4966119;28;20034;-67
2023/05/01 09:22:06;;;;;;;5.25;2.60;;;21.20;44.00;;;;;;4968047;28;20093;-67
2023/05/01 09:24:32;;;;;;;4.88;2.05;;;21.40;42.20;;;;;;4962597;28;20035;-67
2023/05/01 09:26:58;;;;;;;5.97;2.50;;;21.50;43.10;;;;;;4961832;28;20124;-67
2023/05/01 09:29:47;;;;;;;7.43;2.67;;;21.50;42.80;;;;;;4955758;28;20038;-67
2023/05/01 09:32:14;;;;;;;4.70;1.92;;;21.20;42.50;;;;;;4960685;28;20039;-67
2023/05/01 09:34:42;;;;;;;11.00;2.80;;;21.20;42.60;;;;;;4969761;28;20038;-67
2023/05/01 09:37:11;;;;;;;6.10;2.35;;;21.40;43.60;;;;;;4962375;28;20045;-67
2023/05/01 09:39:37;;;;;;;6.15;2.47;;;21.50;43.90;;;;;;4959128;28;20046;-67
2023/05/01 09:42:03;;;;;;;6.25;2.60;;;21.80;43.00;;;;;;4960954;28;20035;-67
2023/05/01 09:44:29;;;;;;;7.82;2.10;;;21.60;43.40;;;;;;4964306;28;20069;-67
2023/05/01 09:46:54;;;;;;;7.28;2.65;;;21.60;42.70;;;;;;4964719;28;20037;-67
2023/05/01 09:49:44;;;;;;;6.25;2.67;;;21.70;43.30;;;;;;4964139;28;20042;-67
2023/05/01 09:52:10;;;;;;;5.90;2.63;;;21.10;43.30;;;;;;4967163;28;20082;-68
2023/05/01 09:54:36;;;;;;;6.65;2.88;;;20.90;43.10;;;;;;4969112;28;20039;-68
2023/05/01 09:57:02;;;;;;;7.40;2.65;;;21.00;44.40;;;;;;4959570;28;20631;-67
2023/05/01 09:59:30;;;;;;;4.85;2.22;;;21.10;43.80;;;;;;4961659;28;20711;-65
2023/05/01 10:01:56;;;;;;;4.88;2.28;;;21.60;43.40;;;;;;4970674;28;20039;-68
2023/05/01 10:04:32;;;;;;;6.90;2.67;;;21.90;42.60;;;;;;4957967;28;20094;-67
2023/05/01 10:07:14;;;;;;;4.80;2.20;;;21.90;43.00;;;;;;4965227;28;20681;-67
2023/05/01 10:09:43;;;;;;;6.82;2.38;;;21.60;42.70;;;;;;4962903;28;20035;-67
2023/05/01 10:12:08;;;;;;;6.00;2.40;;;21.10;43.00;;;;;;4967459;28;20807;-67
2023/05/01 10:14:52;;;;;;;5.28;2.45;;;20.80;44.10;;;;;;4959800;28;20150;-66
2023/05/01 10:17:19;;;;;;;5.60;2.53;;;20.90;44.40;;;;;;4962393;28;20078;-66
2023/05/01 10:19:46;;;;;;;7.38;2.40;;;20.90;41.20;;;;;;4964185;28;20039;-67
2023/05/01 10:22:12;;;;;;;4.85;2.50;;;20.60;41.90;;;;;;4971904;28;20614;-66
2023/05/01 10:24:41;;;;;;;9.38;3.08;;;20.30;41.80;;;;;;4973258;28;20403;-66
2023/05/01 10:27:09;;;;;;;6.50;2.63;;;20.00;41.90;;;;;;4952480;28;20770;-66
2023/05/01 10:29:38;;;;;;;5.57;2.80;;;20.00;43.20;;;;;;4962073;28;20035;-66
2023/05/01 10:32:08;;;;;;;6.72;2.58;;;20.20;42.60;;;;;;4962385;28;20046;-67
2023/05/01 10:34:42;;;;;;;5.45;2.92;;;20.20;43.40;;;;;;4969452;28;20038;-66
2023/05/01 10:37:23;;;;;;;3.03;2.00;;;20.50;43.20;;;;;;4974054;28;20031;-66
2023/05/01 10:39:49;;;;;;;7.75;2.83;;;20.70;43.30;;;;;;4967686;28;20030;-66
2023/05/01 10:42:15;;;;;;;4.30;2.47;;;20.80;42.60;;;;;;4965258;28;20073;-67
2023/05/01 10:44:42;;;;;;;3.47;2.15;;;21.10;42.20;;;;;;4964989;28;20140;-67
2023/05/01 10:47:23;;;;;;;6.85;2.40;;;21.00;39.30;;;;;;4967084;28;20045;-67
2023/05/01 10:50:06;;;;;;;5.07;2.35;;;20.70;39.10;;;;;;4966923;28;20068;-67
2023/05/01 10:53:13;;;;;;;5.53;2.35;;;20.30;40.00;;;;;;4955824;28;20497;-64
2023/05/01 10:55:41;;;;;;;6.38;2.40;;;20.00;41.00;;;;;;4965517;28;20031;-66
2023/05/01 10:58:07;;;;;;;8.32;2.40;;;19.70;42.80;;;;;;4966165;28;20057;-67
2023/05/01 11:00:33;;;;;;;6.00;2.50;;;19.70;42.40;;;;;;4965670;28;20023;-67
2023/05/01 11:03:20;;;;;;;4.60;2.20;;;19.60;42.70;;;;;;4972123;28;20035;-67
2023/05/01 11:05:58;;;;;;;4.10;2.10;;;19.70;42.30;;;;;;4960083;28;20131;-67
2023/05/01 11:08:37;;;;;;;7.55;2.80;;;19.80;42.10;;;;;;4969480;28;20761;-67
2023/05/01 11:11:18;;;;;;;5.35;2.40;;;20.10;43.80;;;;;;4971513;28;20064;-67
2023/05/01 11:14:00;;;;;;;4.10;2.22;;;20.30;42.60;;;;;;4962616;28;20042;-67
2023/05/01 11:16:40;;;;;;;6.25;2.67;;;20.30;40.70;;;;;;4963024;28;20113;-65
2023/05/01 11:19:22;;;;;;;7.03;2.78;;;20.20;40.40;;;;;;4966437;28;20041;-66
2023/05/01 11:21:49;;;;;;;6.43;2.38;;;20.00;41.90;;;;;;4967401;28;20848;-67
2023/05/01 11:24:17;;;;;;;4.85;2.20;;;20.10;42.40;;;;;;4974768;28;21122;-67
2023/05/01 11:26:43;;;;;;;4.30;2.58;;;20.30;41.60;;;;;;4970059;28;20690;-67
2023/05/01 11:29:10;;;;;;;8.15;2.17;;;20.50;42.20;;;;;;4968436;28;20034;-67
2023/05/01 11:31:37;;;;;;;6.85;2.72;;;20.60;42.40;;;;;;4961831;28;20040;-67
2023/05/01 11:34:03;;;;;;;5.40;2.25;;;20.70;40.30;;;;;;4970022;28;20386;-67
2023/05/01 11:36:47;;;;;;;4.25;2.47;;;20.60;40.00;;;;;;4966512;28;20034;-66
2023/05/01 11:39:16;;;;;;;5.40;3.08;;;20.60;40.80;;;;;;4968576;28;20038;-68
2023/05/01 11:41:42;;;;;;;6.30;2.80;;;20.60;40.00;;;;;;4969994;28;20034;-67
2023/05/01 11:44:11;;;;;;;5.63;2.83;;;20.70;42.60;;;;;;4964881;28;20077;-67
2023/05/01 11:46:37;;;;;;;6.03;2.67;;;20.50;40.40;;;;;;4962655;28;20102;-66
2023/05/01 11:49:04;;;;;;;4.97;2.92;;;20.50;41.20;;;;;;4970103;28;20681;-66
2023/05/01 11:51:30;;;;;;;4.60;2.58;;;20.70;41.50;;;;;;4969466;28;20061;-66
2023/05/01 11:54:04;;;;;;;6.22;2.70;;;20.50;40.60;;;;;;4972581;28;20039;-66
2023/05/01 11:56:31;;;;;;;5.10;2.65;;;20.20;42.70;;;;;;4972698;28;20042;-67
2023/05/01 11:59:07;;;;;;;6.93;3.13;;;20.20;40.90;;;;;;4969479;28;20101;-66
2023/05/01 12:01:35;;;;;;;;;;;20.30;40.30;;;;;;4969507;28;20061;-67
2023/05/01 12:04:04;;;;;;;7.93;2.95;;;20.20;39.90;;;;;;4972076;28;20040;-66
2023/05/01 12:06:44;;;;;;;7.43;3.63;;;20.20;39.70;;;;;;4974223;28;20666;-67
2023/05/01 12:09:16;;;;;;;6.75;3.42;;;20.30;39.80;;;;;;4964768;28;20041;-67
2023/05/01 12:11:42;;;;;;;7.25;3.50;;;20.50;41.80;;;;;;4969454;28;20049;-65
2023/05/01 12:14:09;;;;;;;7.45;3.50;;;20.50;40.00;;;;;;4967497;28;20037;-66
2023/05/01 12:16:39;;;;;;;8.55;3.42;;;20.40;40.40;;;;;;4967570;28;20038;-65
2023/05/01 12:19:06;;;;;;;8.15;3.42;;;20.40;41.00;;;;;;4966742;28;20033;-66
2023/05/01 12:21:32;;;;;;;7.78;3.85;;;20.40;41.90;;;;;;4962877;28;20653;-64
2023/05/01 12:24:10;;;;;;;10.63;4.00;;;20.50;40.40;;;;;;4964895;28;20026;-66
2023/05/01 12:26:36;;;;;;;6.15;3.13;;;20.50;40.20;;;;;;4951660;28;20039;-66
2023/05/01 12:29:04;;;;;;;5.63;3.15;;;20.40;39.50;;;;;;4966843;28;20083;-67
2023/05/01 12:31:30;;;;;;;7.07;3.47;;;20.20;39.20;;;;;;4963985;28;20031;-65
2023/05/01 12:34:06;;;;;;;6.32;3.00;;;20.20;39.30;;;;;;4967048;28;20529;-65
2023/05/01 12:36:35;;;;;;;5.80;3.60;;;20.10;40.50;;;;;;4962553;28;20061;-65
2023/05/01 12:39:07;;;;;;;7.47;3.22;;;20.20;40.40;;;;;;4963339;28;20034;-66
2023/05/01 12:41:47;;;;;;;6.50;3.55;;;20.40;40.60;;;;;;4970642;28;20048;-67
2023/05/01 12:44:23;;;;;;;8.50;3.42;;;20.40;38.70;;;;;;4962357;28;20537;-66
2023/05/01 12:47:02;;;;;;;6.85;3.38;;;20.40;38.80;;;;;;4965907;28;20035;-69
2023/05/01 12:49:29;;;;;;;6.80;3.80;;;20.50;39.60;;;;;;4961303;28;20062;-66
2023/05/01 12:51:59;;;;;;;5.22;3.15;;;20.60;40.30;;;;;;4985977;28;20551;-67
2023/05/01 12:54:30;;;;;;;6.70;2.97;;;20.50;39.70;;;;;;4955262;28;20399;-66
2023/05/01 12:57:10;;;;;;;8.45;3.08;;;20.40;40.30;;;;;;4962584;28;20078;-67